createdAt,value
2018-08-17T00:01:55.234Z,77.62
2018-08-17T00:04:22.949Z,77.60
2018-08-17T00:06:50.654Z,77.35
2018-08-17T00:09:18.498Z,76.41
2018-08-17T00:11:46.157Z,76.48
2018-08-17T00:14:13.807Z,77.10
2018-08-17T00:16:41.652Z,76.37
2018-08-17T00:19:09.315Z,76.00
2018-08-17T00:21:37.013Z,76.64
2018-08-17T00:24:04.755Z,76.74
2018-08-17T00:26:32.438Z,76.62
2018-08-17T00:29:00.118Z,75.75
2018-08-17T00:31:27.788Z,75.83
2018-08-17T00:33:55.455Z,75.86
2018-08-17T00:36:23.196Z,75.93
2018-08-17T00:38:50.842Z,76.29
2018-08-17T00:41:18.542Z,75.73
2018-08-17T00:43:46.302Z,77.33
2018-08-17T00:46:13.986Z,77.07
2018-08-17T00:48:41.674Z,77.20
2018-08-17T00:51:09.329Z,76.64
2018-08-17T00:53:37.281Z,77.09
2018-08-17T00:56:05.011Z,77.86
2018-08-17T00:58:32.729Z,77.42
2018-08-17T01:01:00.459Z,77.50
2018-08-17T01:03:28.221Z,77.39
2018-08-17T01:05:55.887Z,77.05
2018-08-17T01:08:23.594Z,78.04
2018-08-17T01:10:51.322Z,77.39
2018-08-17T01:13:18.983Z,78.18
2018-08-17T01:15:46.679Z,78.50
2018-08-17T01:18:14.368Z,77.34
2018-08-17T01:20:42.034Z,77.71
2018-08-17T01:23:09.678Z,78.20
2018-08-17T01:25:37.767Z,78.94
2018-08-17T01:28:06.523Z,78.73
2018-08-17T01:30:34.272Z,79.58
2018-08-17T01:33:01.943Z,78.10
2018-08-17T01:35:29.587Z,78.21
2018-08-17T01:37:57.244Z,78.12
2018-08-17T01:40:24.893Z,78.39
2018-08-17T01:42:52.578Z,79.23
2018-08-17T01:45:20.243Z,78.52
2018-08-17T01:47:47.919Z,79.30
2018-08-17T01:50:15.578Z,80.08
2018-08-17T01:52:43.368Z,79.64
2018-08-17T01:55:11.816Z,79.48
2018-08-17T01:57:39.480Z,78.24
2018-08-17T02:00:11.265Z,77.76
2018-08-17T02:02:40.693Z,78.33
2018-08-17T02:05:08.966Z,78.44
2018-08-17T02:07:36.656Z,77.59
2018-08-17T02:10:05.760Z,78.16
2018-08-17T02:12:33.426Z,77.99
2018-08-17T02:15:01.096Z,79.16
2018-08-17T02:17:28.759Z,77.84
2018-08-17T02:19:56.428Z,78.20
2018-08-17T02:22:24.094Z,78.19
2018-08-17T02:24:51.781Z,78.07
2018-08-17T02:27:19.437Z,78.00
2018-08-17T02:29:47.092Z,77.82
2018-08-17T02:32:14.742Z,77.61
2018-08-17T02:34:42.417Z,78.68
2018-08-17T02:37:10.087Z,77.79
2018-08-17T02:39:37.774Z,77.67
2018-08-17T02:42:05.898Z,78.01
2018-08-17T02:44:33.547Z,77.85
2018-08-17T02:47:01.259Z,78.37
2018-08-17T02:49:28.932Z,78.08
2018-08-17T02:51:56.606Z,77.96
2018-08-17T02:54:24.292Z,78.12
2018-08-17T02:56:51.992Z,78.13
2018-08-17T02:59:19.655Z,79.11
2018-08-17T03:01:47.321Z,78.18
2018-08-17T03:04:15.082Z,78.59
2018-08-17T03:06:42.761Z,78.50
2018-08-17T03:09:11.339Z,78.83
2018-08-17T03:11:39.123Z,79.30
2018-08-17T03:14:07.222Z,79.12
2018-08-17T03:16:35.062Z,78.87
2018-08-17T03:19:02.717Z,78.84
2018-08-17T03:21:30.377Z,79.96
2018-08-17T03:23:58.052Z,80.07
2018-08-17T03:26:25.731Z,79.71
2018-08-17T03:28:53.394Z,79.09
2018-08-17T03:31:21.069Z,79.21
2018-08-17T03:33:48.716Z,79.28
2018-08-17T03:36:16.387Z,79.47
2018-08-17T03:38:44.061Z,80.25
2018-08-17T03:41:11.722Z,78.88
2018-08-17T03:43:39.393Z,79.05
2018-08-17T03:46:07.119Z,79.53
2018-08-17T03:48:34.778Z,79.09
2018-08-17T03:51:02.488Z,78.58
2018-08-17T03:53:30.256Z,78.82
2018-08-17T03:55:57.926Z,78.89
2018-08-17T03:58:25.903Z,78.06
2018-08-17T04:00:53.620Z,78.53
2018-08-17T04:03:21.286Z,78.59
2018-08-17T04:05:48.995Z,78.47
2018-08-17T04:08:16.654Z,79.21
2018-08-17T04:10:44.322Z,78.86
2018-08-17T04:13:12.040Z,78.56
2018-08-17T04:15:39.786Z,78.44
2018-08-17T04:18:08.062Z,78.20
2018-08-17T04:20:35.736Z,77.99
2018-08-17T04:23:03.489Z,76.97
2018-08-17T04:25:31.470Z,76.77
2018-08-17T04:27:59.211Z,76.00
2018-08-17T04:30:26.898Z,75.66
2018-08-17T04:32:54.558Z,75.34
2018-08-17T04:35:22.262Z,75.35
2018-08-17T04:37:49.915Z,75.23
2018-08-17T04:40:17.574Z,74.66
2018-08-17T04:42:45.224Z,74.35
2018-08-17T04:45:12.886Z,74.51
2018-08-17T04:47:40.556Z,73.53
2018-08-17T04:50:09.048Z,73.68
2018-08-17T04:52:37.117Z,73.83
2018-08-17T04:55:04.962Z,74.40
2018-08-17T04:57:32.833Z,74.20
2018-08-17T05:00:00.590Z,74.06
2018-08-17T05:02:28.292Z,73.93
2018-08-17T05:04:55.936Z,73.74
2018-08-17T05:07:23.765Z,73.38
2018-08-17T05:09:51.432Z,73.60
2018-08-17T05:12:19.085Z,72.53
2018-08-17T05:14:46.762Z,73.39
2018-08-17T05:17:14.463Z,72.64
2018-08-17T05:19:42.129Z,72.66
2018-08-17T05:22:09.811Z,72.93
2018-08-17T05:24:37.486Z,72.61
2018-08-17T05:27:05.323Z,71.83
2018-08-17T05:29:32.990Z,71.87
2018-08-17T05:32:00.668Z,71.80
2018-08-17T05:34:28.334Z,71.30
2018-08-17T05:36:56.127Z,71.99
2018-08-17T05:39:23.841Z,71.72
2018-08-17T05:41:51.590Z,72.05
2018-08-17T05:44:19.288Z,71.89
2018-08-17T05:46:47.014Z,71.67
2018-08-17T05:49:14.678Z,71.50
2018-08-17T05:51:42.337Z,71.48
2018-08-17T05:54:10.006Z,71.39
2018-08-17T05:56:37.726Z,71.48
2018-08-17T05:59:05.620Z,70.79
2018-08-17T06:01:33.292Z,70.97
2018-08-17T06:04:00.953Z,70.63
2018-08-17T06:06:28.619Z,70.71
2018-08-17T06:08:56.290Z,70.87
2018-08-17T06:11:24.149Z,70.24
2018-08-17T06:13:51.697Z,70.60
2018-08-17T06:16:19.367Z,70.58
2018-08-17T06:18:47.025Z,70.38
2018-08-17T06:21:14.723Z,70.05
2018-08-17T06:23:42.416Z,69.62
2018-08-17T06:26:10.096Z,69.80
2018-08-17T06:28:37.769Z,69.15
2018-08-17T06:31:05.748Z,69.11
2018-08-17T06:33:33.436Z,69.27
2018-08-17T06:36:01.341Z,69.18
2018-08-17T06:38:29.028Z,68.80
2018-08-17T06:40:56.740Z,68.53
2018-08-17T06:43:24.418Z,68.48
2018-08-17T06:45:52.172Z,68.65
2018-08-17T06:48:19.859Z,68.06
2018-08-17T06:50:47.625Z,66.82
2018-08-17T06:53:15.214Z,67.80
2018-08-17T06:55:42.921Z,67.52
2018-08-17T06:58:10.621Z,67.13
2018-08-17T07:00:38.285Z,66.34
2018-08-17T07:03:06.173Z,66.96
2018-08-17T07:05:33.861Z,66.03
2018-08-17T07:08:01.541Z,66.36
2018-08-17T07:10:29.311Z,66.37
2018-08-17T07:12:56.995Z,64.56
2018-08-17T07:15:24.664Z,65.28
2018-08-17T07:17:52.374Z,65.11
2018-08-17T07:20:20.074Z,64.89
2018-08-17T07:22:47.832Z,64.19
2018-08-17T07:25:15.530Z,64.06
2018-08-17T07:27:43.291Z,64.56
2018-08-17T07:30:11.038Z,64.64
2018-08-17T07:32:38.741Z,64.02
2018-08-17T07:35:07.864Z,63.79
2018-08-17T07:37:43.508Z,63.94
2018-08-17T07:40:11.216Z,63.58
2018-08-17T07:42:38.913Z,61.35
2018-08-17T07:45:06.706Z,62.97
2018-08-17T07:47:34.373Z,62.08
2018-08-17T07:50:02.076Z,62.54
2018-08-17T07:52:29.791Z,62.30
2018-08-17T07:54:57.448Z,61.44
2018-08-17T07:57:25.208Z,59.74
2018-08-17T07:59:52.898Z,60.70
2018-08-17T08:02:20.582Z,60.77
2018-08-17T08:04:48.238Z,60.54
2018-08-17T08:07:15.912Z,60.01
2018-08-17T08:09:43.564Z,59.68
2018-08-17T08:12:11.232Z,57.48
2018-08-17T08:14:38.913Z,57.25
2018-08-17T08:17:06.681Z,57.88
2018-08-17T08:19:34.372Z,57.09
2018-08-17T08:22:02.048Z,57.28
2018-08-17T08:24:31.873Z,56.64
2018-08-17T08:26:59.602Z,56.79
2018-08-17T08:29:27.302Z,56.57
2018-08-17T08:31:54.996Z,57.51
2018-08-17T08:34:22.665Z,57.18
2018-08-17T08:36:50.383Z,56.25
2018-08-17T08:39:18.082Z,56.68
2018-08-17T08:41:45.741Z,55.31
2018-08-17T08:44:13.437Z,55.80
2018-08-17T08:46:41.140Z,55.60
2018-08-17T08:49:08.845Z,54.99
2018-08-17T08:51:36.549Z,53.62
2018-08-17T08:54:04.377Z,53.14
2018-08-17T08:56:32.060Z,54.52
2018-08-17T08:58:59.759Z,54.62
2018-08-17T09:01:27.414Z,54.81
2018-08-17T09:03:55.194Z,55.38
2018-08-17T09:06:23.305Z,54.13
2018-08-17T09:08:50.969Z,55.23
2018-08-17T09:11:18.650Z,55.20
2018-08-17T09:13:46.367Z,55.49
2018-08-17T09:16:14.047Z,55.56
2018-08-17T09:18:41.759Z,56.19
2018-08-17T09:21:09.417Z,55.21
2018-08-17T09:23:37.273Z,55.17
2018-08-17T09:26:04.965Z,55.67
2018-08-17T09:28:32.719Z,55.30
2018-08-17T09:31:00.493Z,54.64
2018-08-17T09:33:28.226Z,54.67
2018-08-17T09:35:55.965Z,55.36
2018-08-17T09:38:23.674Z,55.13
2018-08-17T09:40:51.358Z,55.54
2018-08-17T09:43:19.117Z,51.70
2018-08-17T09:45:46.838Z,55.21
2018-08-17T09:48:14.534Z,55.07
2018-08-17T09:50:42.196Z,56.04
2018-08-17T09:53:09.881Z,55.73
2018-08-17T09:55:37.560Z,56.25
2018-08-17T09:58:05.282Z,56.08
2018-08-17T10:00:38.484Z,55.64
2018-08-17T10:03:12.487Z,54.59
2018-08-17T10:05:42.024Z,54.91
2018-08-17T10:08:15.178Z,55.63
2018-08-17T10:10:43.534Z,54.96
2018-08-17T10:13:11.238Z,55.12
2018-08-17T10:15:38.932Z,54.42
2018-08-17T10:18:06.636Z,53.64
2018-08-17T10:20:34.405Z,53.66
2018-08-17T10:23:10.637Z,53.38
2018-08-17T10:25:38.925Z,54.04
2018-08-17T10:28:06.654Z,53.82
2018-08-17T10:30:34.372Z,54.92
2018-08-17T10:33:02.077Z,52.87
2018-08-17T10:35:33.846Z,54.00
2018-08-17T10:38:02.856Z,53.47
2018-08-17T10:40:30.616Z,53.57
2018-08-17T10:43:00.113Z,53.88
2018-08-17T10:45:27.988Z,52.69
2018-08-17T10:47:56.129Z,52.42
2018-08-17T10:50:25.997Z,53.14
2018-08-17T10:52:55.915Z,53.21
2018-08-17T10:55:35.449Z,53.59
2018-08-17T10:58:03.627Z,52.42
2018-08-17T11:00:31.336Z,52.68
2018-08-17T11:02:59.000Z,51.09
2018-08-17T11:05:26.682Z,52.19
2018-08-17T11:07:54.359Z,51.58
2018-08-17T11:10:22.013Z,51.95
2018-08-17T11:12:49.684Z,52.87
2018-08-17T11:15:17.369Z,51.35
2018-08-17T11:17:45.665Z,51.55
2018-08-17T11:20:14.820Z,50.11
2018-08-17T11:22:42.515Z,51.01
2018-08-17T11:25:10.213Z,50.39
2018-08-17T11:27:38.079Z,50.93
2018-08-17T11:30:08.185Z,50.72
2018-08-17T11:32:35.860Z,50.31
2018-08-17T11:35:03.680Z,49.72
2018-08-17T11:37:31.379Z,49.37
2018-08-17T11:40:00.722Z,49.87
2018-08-17T11:42:41.375Z,48.46
2018-08-17T11:45:11.057Z,49.76
2018-08-17T11:47:39.768Z,49.66
2018-08-17T11:50:11.541Z,49.81
2018-08-17T11:52:55.174Z,49.67
2018-08-17T11:55:23.833Z,47.95
2018-08-17T11:57:51.832Z,49.96
2018-08-17T12:00:19.577Z,49.39
2018-08-17T12:02:48.024Z,49.78
2018-08-17T12:05:15.743Z,49.85
2018-08-17T12:07:44.335Z,50.09
2018-08-17T12:10:12.033Z,47.99
2018-08-17T12:12:40.761Z,48.46
2018-08-17T12:15:09.529Z,48.36
2018-08-17T12:17:37.388Z,49.46
2018-08-17T12:20:05.124Z,49.85
2018-08-17T12:22:32.841Z,47.50
2018-08-17T12:25:00.962Z,49.24
2018-08-17T12:27:28.672Z,47.59
2018-08-17T12:29:56.350Z,47.79
2018-08-17T12:32:24.487Z,47.89
2018-08-17T12:34:52.355Z,47.93
2018-08-17T12:37:20.181Z,47.97
2018-08-17T12:39:47.842Z,48.97
2018-08-17T12:42:15.652Z,48.52
2018-08-17T12:44:43.316Z,49.13
2018-08-17T12:47:10.981Z,47.24
2018-08-17T12:49:38.664Z,47.63
2018-08-17T12:52:06.406Z,47.28
2018-08-17T12:54:34.719Z,46.88
2018-08-17T12:57:03.429Z,48.21
2018-08-17T12:59:31.678Z,48.57
2018-08-17T13:01:59.361Z,47.54
2018-08-17T13:04:27.620Z,48.26
2018-08-17T13:06:55.693Z,45.90
2018-08-17T13:09:23.691Z,48.00
2018-08-17T13:11:55.413Z,47.05
2018-08-17T13:14:23.198Z,47.64
2018-08-17T13:16:51.417Z,48.41
2018-08-17T13:19:19.105Z,47.56
2018-08-17T13:21:46.781Z,47.24
2018-08-17T13:24:14.474Z,47.38
2018-08-17T13:26:42.246Z,47.56
2018-08-17T13:29:09.976Z,47.83
2018-08-17T13:31:37.760Z,46.10
2018-08-17T13:34:05.595Z,47.65
2018-08-17T13:36:33.317Z,47.33
2018-08-17T13:39:01.061Z,47.66
2018-08-17T13:41:28.790Z,48.24
2018-08-17T13:43:56.540Z,46.93
2018-08-17T13:46:24.505Z,47.19
2018-08-17T13:48:52.396Z,46.72
2018-08-17T13:51:20.150Z,47.83
2018-08-17T13:53:47.899Z,48.10
2018-08-17T13:56:15.593Z,47.06
2018-08-17T13:58:44.180Z,47.06
2018-08-17T14:01:11.925Z,48.56
2018-08-17T14:03:39.610Z,46.97
2018-08-17T14:06:07.309Z,47.92
2018-08-17T14:08:34.976Z,47.86
2018-08-17T14:11:02.682Z,46.95
2018-08-17T14:13:30.357Z,48.45
2018-08-17T14:15:58.029Z,48.87
2018-08-17T14:18:25.752Z,48.83
2018-08-17T14:20:53.414Z,48.45
2018-08-17T14:23:21.117Z,47.95
2018-08-17T14:25:48.825Z,48.52
2018-08-17T14:28:16.516Z,48.92
2018-08-17T14:30:44.185Z,47.94
2018-08-17T14:33:11.844Z,48.03
2018-08-17T14:35:39.613Z,47.64
2018-08-17T14:38:07.361Z,48.91
2018-08-17T14:40:35.064Z,48.25
2018-08-17T14:43:02.770Z,47.59
2018-08-17T14:45:30.437Z,48.72
2018-08-17T14:47:58.109Z,47.49
2018-08-17T14:50:25.825Z,48.98
2018-08-17T14:52:53.520Z,48.82
2018-08-17T14:55:21.307Z,49.17
2018-08-17T14:57:49.090Z,48.60
2018-08-17T15:00:16.788Z,48.79
2018-08-17T15:02:44.493Z,48.56
2018-08-17T15:05:14.231Z,48.72
2018-08-17T15:07:42.035Z,49.03
2018-08-17T15:10:11.788Z,48.91
2018-08-17T15:12:39.973Z,48.58
2018-08-17T15:15:08.732Z,48.68
2018-08-17T15:17:36.469Z,48.63
2018-08-17T15:20:04.398Z,48.84
2018-08-17T15:22:32.126Z,48.39
2018-08-17T15:24:59.991Z,48.78
2018-08-17T15:27:27.761Z,48.74
2018-08-17T15:29:55.440Z,48.52
2018-08-17T15:32:23.161Z,47.66
2018-08-17T15:34:50.865Z,48.54
2018-08-17T15:37:18.757Z,48.98
2018-08-17T15:39:46.433Z,48.80
2018-08-17T15:42:14.142Z,47.86
2018-08-17T15:44:41.860Z,48.44
2018-08-17T15:47:09.598Z,48.30
2018-08-17T15:49:37.337Z,48.25
2018-08-17T15:52:06.050Z,47.53
2018-08-17T15:54:33.747Z,48.42
2018-08-17T15:57:01.471Z,47.77
2018-08-17T15:59:29.230Z,48.41
2018-08-17T16:01:56.958Z,48.56
2018-08-17T16:04:24.813Z,48.27
2018-08-17T16:06:52.587Z,49.15
2018-08-17T16:09:20.257Z,48.09
2018-08-17T16:11:48.012Z,48.85
2018-08-17T16:14:15.785Z,47.58
2018-08-17T16:16:43.492Z,48.63
2018-08-17T16:19:11.278Z,49.55
2018-08-17T16:21:38.977Z,49.29
2018-08-17T16:24:06.969Z,48.66
2018-08-17T16:26:34.806Z,49.20
2018-08-17T16:29:02.975Z,50.06
2018-08-17T16:31:40.563Z,49.36
2018-08-17T16:34:08.976Z,48.86
2018-08-17T16:36:38.286Z,49.41
2018-08-17T16:39:12.569Z,49.21
2018-08-17T16:41:40.329Z,49.75
2018-08-17T16:44:08.106Z,49.40
2018-08-17T16:46:38.295Z,49.15
2018-08-17T16:49:06.321Z,49.82
2018-08-17T16:51:34.078Z,49.83
2018-08-17T16:54:01.744Z,49.61
2018-08-17T16:56:29.417Z,49.44
2018-08-17T16:58:57.100Z,49.88
2018-08-17T17:01:24.877Z,50.23
2018-08-17T17:03:52.607Z,50.15
2018-08-17T17:06:20.387Z,49.38
2018-08-17T17:08:48.242Z,49.37
2018-08-17T17:11:15.921Z,49.40
2018-08-17T17:13:43.584Z,49.31
2018-08-17T17:16:11.295Z,48.95
2018-08-17T17:18:38.956Z,49.10
2018-08-17T17:21:06.661Z,49.31
2018-08-17T17:23:43.088Z,50.08
2018-08-17T17:26:10.949Z,50.47
2018-08-17T17:28:38.625Z,50.02
2018-08-17T17:31:06.536Z,49.93
2018-08-17T17:33:34.208Z,49.79
2018-08-17T17:36:01.969Z,49.88
2018-08-17T17:38:29.644Z,49.78
2018-08-17T17:40:57.375Z,49.69
2018-08-17T17:43:25.053Z,49.55
2018-08-17T17:45:52.856Z,50.21
2018-08-17T17:48:20.525Z,50.23
2018-08-17T17:50:48.367Z,49.41
2018-08-17T17:53:16.074Z,50.42
2018-08-17T17:55:50.369Z,50.09
2018-08-17T17:58:18.876Z,50.23
2018-08-17T18:00:59.627Z,50.30
2018-08-17T18:03:29.404Z,50.01
2018-08-17T18:06:07.236Z,50.88
2018-08-17T18:08:34.958Z,50.39
2018-08-17T18:11:02.818Z,50.75
2018-08-17T18:13:30.651Z,50.66
2018-08-17T18:15:58.428Z,51.38
2018-08-17T18:18:26.109Z,52.01
2018-08-17T18:20:53.818Z,51.77
2018-08-17T18:23:21.585Z,51.70
2018-08-17T18:25:49.268Z,51.88
2018-08-17T18:28:16.966Z,51.62
2018-08-17T18:30:44.706Z,51.72
2018-08-17T18:33:12.401Z,51.14
2018-08-17T18:35:40.073Z,50.98
2018-08-17T18:38:07.985Z,50.89
2018-08-17T18:40:35.744Z,51.31
2018-08-17T18:43:03.616Z,52.28
2018-08-17T18:45:31.316Z,52.23
2018-08-17T18:47:58.974Z,52.35
2018-08-17T18:50:26.661Z,51.91
2018-08-17T18:52:54.478Z,52.07
2018-08-17T18:55:22.119Z,52.39
2018-08-17T18:57:49.899Z,52.45
2018-08-17T19:00:17.582Z,52.94
2018-08-17T19:02:45.323Z,52.66
2018-08-17T19:05:13.041Z,52.05
2018-08-17T19:07:40.864Z,52.71
2018-08-17T19:10:09.455Z,52.76
2018-08-17T19:12:37.295Z,52.46
2018-08-17T19:15:09.192Z,51.72
2018-08-17T19:17:37.045Z,51.85
2018-08-17T19:20:06.884Z,51.82
2018-08-17T19:22:37.060Z,51.61
2018-08-17T19:25:05.974Z,51.84
2018-08-17T19:27:33.690Z,51.96
2018-08-17T19:30:01.978Z,52.02
2018-08-17T19:32:29.644Z,51.93
2018-08-17T19:34:57.327Z,52.02
2018-08-17T19:37:25.045Z,51.87
2018-08-17T19:39:52.715Z,51.88
2018-08-17T19:42:20.374Z,52.31
2018-08-17T19:44:48.176Z,52.01
2018-08-17T19:47:15.849Z,51.47
2018-08-17T19:49:43.603Z,51.60
2018-08-17T19:52:11.302Z,52.31
2018-08-17T19:54:38.975Z,52.59
2018-08-17T19:57:06.685Z,52.61
2018-08-17T19:59:34.369Z,52.64
2018-08-17T20:02:02.081Z,53.01
2018-08-17T20:04:30.384Z,52.82
2018-08-17T20:06:58.378Z,52.94
2018-08-17T20:09:26.071Z,53.39
2018-08-17T20:11:53.761Z,53.54
2018-08-17T20:14:21.498Z,53.84
2018-08-17T20:16:49.235Z,54.04
2018-08-17T20:19:17.006Z,53.98
2018-08-17T20:21:44.641Z,54.07
2018-08-17T20:24:12.342Z,54.51
2018-08-17T20:26:40.393Z,55.17
2018-08-17T20:29:07.798Z,54.29
2018-08-17T20:31:40.030Z,54.86
2018-08-17T20:34:07.780Z,55.02
2018-08-17T20:36:35.479Z,55.27
2018-08-17T20:39:09.838Z,54.61
2018-08-17T20:41:37.639Z,54.72
2018-08-17T20:44:05.671Z,54.94
2018-08-17T20:46:33.405Z,56.03
2018-08-17T20:49:01.130Z,55.96
2018-08-17T20:51:28.822Z,55.41
2018-08-17T20:53:58.782Z,56.06
2018-08-17T20:56:27.134Z,55.90
2018-08-17T20:58:54.980Z,55.93
2018-08-17T21:01:22.901Z,56.68
2018-08-17T21:03:50.795Z,56.11
2018-08-17T21:08:48.792Z,56.06
2018-08-17T21:11:16.543Z,56.44
2018-08-17T21:13:44.244Z,55.84
2018-08-17T21:16:11.911Z,55.64
2018-08-17T21:18:39.590Z,55.66
2018-08-17T21:21:07.322Z,55.67
2018-08-17T21:23:34.980Z,55.73
2018-08-17T21:26:02.723Z,55.84
2018-08-17T21:28:30.912Z,55.46
2018-08-17T21:30:58.641Z,54.84
2018-08-17T21:33:26.346Z,55.49
2018-08-17T21:35:54.073Z,55.67
2018-08-17T21:38:21.755Z,55.47
2018-08-17T21:40:49.442Z,55.39
2018-08-17T21:43:17.263Z,55.44
2018-08-17T21:45:45.266Z,55.55
2018-08-17T21:48:20.233Z,55.59
2018-08-17T21:50:48.070Z,55.09
2018-08-17T21:53:15.737Z,54.83
2018-08-17T21:55:43.439Z,55.84
2018-08-17T21:58:11.097Z,56.19
2018-08-17T22:00:38.846Z,55.75
2018-08-17T22:03:29.505Z,55.68
2018-08-17T22:05:57.255Z,55.01
2018-08-17T22:08:24.914Z,54.67
2018-08-17T22:10:52.671Z,55.17
2018-08-17T22:13:28.948Z,54.77
2018-08-17T22:15:56.810Z,54.10
2018-08-17T22:18:24.577Z,54.36
2018-08-17T22:20:52.253Z,53.99
2018-08-17T22:23:19.934Z,53.64
2018-08-17T22:25:47.668Z,54.25
2018-08-17T22:28:15.788Z,54.32
2018-08-17T22:30:43.590Z,54.22
2018-08-17T22:33:12.537Z,54.96
2018-08-17T22:35:40.393Z,54.74
2018-08-17T22:38:08.078Z,53.95
2018-08-17T22:40:35.782Z,54.21
2018-08-17T22:43:03.513Z,53.99
2018-08-17T22:45:31.308Z,54.01
2018-08-17T22:47:58.981Z,53.83
2018-08-17T22:50:26.741Z,54.00
2018-08-17T22:52:54.504Z,54.12
2018-08-17T22:55:22.149Z,54.22
2018-08-17T22:57:49.817Z,53.94
2018-08-17T23:00:22.890Z,54.31
2018-08-17T23:02:52.768Z,54.62
2018-08-17T23:05:24.617Z,54.60
2018-08-17T23:07:52.313Z,54.67
2018-08-17T23:10:21.143Z,54.95
2018-08-17T23:12:49.935Z,54.40
2018-08-17T23:15:17.743Z,55.46
2018-08-17T23:17:51.691Z,55.13
2018-08-17T23:20:24.897Z,55.13
2018-08-17T23:22:54.720Z,54.91
2018-08-17T23:25:22.493Z,54.70
2018-08-17T23:27:50.576Z,55.51
2018-08-17T23:30:18.489Z,55.05
2018-08-17T23:32:46.551Z,55.50
2018-08-17T23:35:14.231Z,55.49
2018-08-17T23:37:41.974Z,55.03
2018-08-17T23:40:10.020Z,55.11
2018-08-17T23:42:37.724Z,55.91
2018-08-17T23:45:06.768Z,55.77
2018-08-17T23:47:34.772Z,56.02
2018-08-17T23:50:02.482Z,55.82
2018-08-17T23:52:30.180Z,55.71
2018-08-17T23:54:57.861Z,56.17
2018-08-17T23:57:25.589Z,56.05
2018-08-17T23:59:53.325Z,58.59
